Masonic Park, Colorado
Current Conditions -  °F | °C
As of 2:30 AM on Saturday 25 Oct 2014 (Local Time) from KRCV Reporting Station
Clear Clear  
Wind Chill: 38°   Ceiling: Unl
Heat Index: 46°   Visibility: 10mi
Dew Point: 28°   Wind: 17mph
Humidity: 49%   Direction: 280°W
Pressure: 30.43"   Gusts: NA
Location:  37.6617°N, 106.617°W
Report Text: KRCV 250830Z AUTO 28015KT 10SM CLR 08/M02 A3043 RMK AO2 T00751025
Loading
Personal Weather Stations






























Interactive Weather Map
Tropical Storm Tracking
New forecast layout! Learn more

10-Day Weather Forecast

Advertisements
Track Severe Weather on mobile